Wind Lake, Wisconsin
Current Conditions -  °F | °C
As of 6:35 AM on Saturday 01 Nov 2014 (Local Time) from KBUU Reporting Station
Overcast Overcast  
Wind Chill: 24°   Ceiling: 3400
Heat Index: 32°   Visibility: 10mi
Dew Point: 22°   Wind: 9mph
Humidity: 66%   Direction: 350°N
Pressure: 30.42"   Gusts: NA
Location:  42.796°N, 88.1897°W
Report Text: KBUU 011135Z AUTO 35008KT 10SM OVC034 00/M06 A3042 RMK AO2 T00001056
Loading
Personal Weather Stations






























Interactive Weather Map
Tropical Storm Tracking
New forecast layout! Learn more

10-Day Weather Forecast

Advertisements
Track Severe Weather on mobile